Main page
METAR-TAF:

METAR-TAF

Airports :

Greater Natal International Airport

Natal, Rio Grande do Norte, Brazil

latitude: 05-46-05S, longitude: 035-22-34W, elevation: 88 m

Current weather observation

The report was made 11 minutes ago, at 10:00 UTC
Wind 3 kt from the Southwest
Temperature 26°C
Humidity 79%
Pressure 1013 hPa
Visibility 10 km or more
Few clouds at a height of 2300 ft

METAR: SBSG 061000Z 22003KT 9999 FEW023 26/22 Q1013

Time: 07:11 (10:11 UTC)

Forecast

The report was made 6 hours and 11 minutes ago, at 04:00 UTC
Forecast valid from 06 at 06 UTC to 07 at 06 UTC
Wind 6 kt from the Southwest
Visibility 10 km or more
Few clouds at a height of 2000 ft
Becoming
from 06 at 10 UTC to 06 at 12 UTC
Wind 8 kt from the South/Southeast
Scattered clouds at a height of 3300 ft
Becoming
from 06 at 18 UTC to 06 at 20 UTC
Few clouds at a height of 1800 ft

TAF: SBSG 060400Z 0606/0706 23006KT 9999 FEW020 TN22/0608Z TX31/0616Z BECMG 0610/0612 16008KT SCT033 BECMG 0618/0620 FEW018 RMK PFY

Weather observations and forecasts of more than 4000 airports (METAR and TAF reports).

The available stations are represented by yellow and red dots on the map.

Hover mouse over dot to see the name of the station.

Then click to see weather observations and forecasts.

To change the map : click on the green buttons with a black cross to zoom in, on the green button with a dash to zoom out, or on the green arrows for adjacent maps.


METAR-TAF: